Time;durP1;ratioP1;P1;durP2;ratioP2;P2;SDS_P1;SDS_P2;PMS_P1;PMS_P2;Temp;Humidity;BMP_temperature;BMP_pressure;BME280_temperature;BME280_humidity;BME280_pressure;Samples;Min_cycle;Max_cycle;Signal;HPM_P1;HPM_P2
2022/08/29 00:01:59;;;;;;;7.43;2.30;;;;;;;;;;5052932;28;20056;-65
2022/08/29 00:04:30;;;;;;;4.88;1.67;;;;;;;;;;5089981;28;20052;-66
2022/08/29 00:07:00;;;;;;;6.03;2.00;;;;;;;;;;5089689;28;20052;-66
2022/08/29 00:09:30;;;;;;;5.35;0.82;;;;;;;;;;5089961;28;20072;-66
2022/08/29 00:12:00;;;;;;;5.97;1.50;;;;;;;;;;5090004;28;20052;-66
2022/08/29 00:14:32;;;;;;;6.63;1.88;;;;;;;;;;5090093;28;20074;-67
2022/08/29 00:17:02;;;;;;;6.57;1.92;;;;;;;;;;5069768;28;20085;-66
2022/08/29 00:19:33;;;;;;;5.95;1.88;;;;;;;;;;5069599;28;20416;-66
2022/08/29 00:22:03;;;;;;;6.35;2.28;;;;;;;;;;5048568;28;20052;-66
2022/08/29 00:24:34;;;;;;;9.93;4.03;;;;;;;;;;5033178;28;20060;-66
2022/08/29 00:27:04;;;;;;;8.18;3.13;;;;;;;;;;5049504;28;20535;-64
2022/08/29 00:29:35;;;;;;;7.55;2.60;;;;;;;;;;5012510;28;20541;-66
2022/08/29 00:32:05;;;;;;;7.57;2.30;;;;;;;;;;5009541;28;20057;-66
2022/08/29 00:34:36;;;;;;;6.75;3.17;;;;;;;;;;5005648;28;20386;-65
2022/08/29 00:37:06;;;;;;;4.22;1.95;;;;;;;;;;4970821;28;20574;-66
2022/08/29 00:39:38;;;;;;;11.75;5.22;;;;;;;;;;5005958;28;20050;-66
2022/08/29 00:42:08;;;;;;;6.47;2.03;;;;;;;;;;4974430;28;20522;-65
2022/08/29 00:44:39;;;;;;;3.35;1.30;;;;;;;;;;4957794;28;20057;-66
2022/08/29 00:47:11;;;;;;;6.47;2.38;;;;;;;;;;4973637;28;20050;-66
2022/08/29 00:49:45;;;;;;;6.50;2.47;;;;;;;;;;4958070;28;20529;-66
2022/08/29 00:52:37;;;;;;;4.70;1.35;;;;;;;;;;4953758;28;20054;-66
2022/08/29 00:55:12;;;;;;;2.88;1.17;;;;;;;;;;4983959;28;20606;-61
2022/08/29 00:57:46;;;;;;;6.07;2.03;;;;;;;;;;4973182;28;20050;-63
2022/08/29 01:00:18;;;;;;;6.68;1.98;;;;;;;;;;4951039;29;20052;-63
2022/08/29 01:02:50;;;;;;;3.50;1.35;;;;;;;;;;4945211;29;20066;-63
2022/08/29 01:05:21;;;;;;;9.05;1.55;;;;;;;;;;4913143;29;20567;-63
2022/08/29 01:07:52;;;;;;;5.93;1.90;;;;;;;;;;4927274;29;20047;-64
2022/08/29 01:13:12;;;;;;;4.05;1.13;;;;;;;;;;4912903;29;20052;-65
2022/08/29 01:15:45;;;;;;;7.25;1.70;;;;;;;;;;4897219;29;20563;-65
2022/08/29 01:18:17;;;;;;;4.45;1.08;;;;;;;;;;4930049;29;20532;-64
2022/08/29 01:21:18;;;;;;;4.20;1.98;;;;;;;;;;4932040;29;20484;-65
2022/08/29 01:24:14;;;;;;;3.58;1.30;;;;;;;;;;4932063;29;20079;-64
2022/08/29 01:26:47;;;;;;;7.00;2.00;;;;;;;;;;4932039;29;20063;-65
2022/08/29 01:29:17;;;;;;;7.82;1.40;;;;;;;;;;4955128;28;20051;-64
2022/08/29 01:31:50;;;;;;;8.18;1.83;;;;;;;;;;4970418;28;20063;-65
2022/08/29 01:34:27;;;;;;;4.30;1.58;;;;;;;;;;4975828;28;20054;-65
2022/08/29 01:37:01;;;;;;;6.18;1.63;;;;;;;;;;4993258;28;20162;-64
2022/08/29 01:39:39;;;;;;;4.63;1.50;;;;;;;;;;4993458;28;20046;-64
2022/08/29 01:42:16;;;;;;;10.75;2.55;;;;;;;;;;4985313;28;20622;-64
2022/08/29 01:44:53;;;;;;;6.40;1.73;;;;;;;;;;5032587;28;20525;-64
2022/08/29 01:47:29;;;;;;;7.32;1.85;;;;;;;;;;5032303;28;20076;-65
2022/08/29 01:50:00;;;;;;;5.60;1.63;;;;;;;;;;5032522;28;20054;-65
2022/08/29 01:52:31;;;;;;;8.38;2.35;;;;;;;;;;4999963;28;20060;-65
2022/08/29 01:55:01;;;;;;;8.75;2.30;;;;;;;;;;5032271;28;20132;-64
2022/08/29 01:57:32;;;;;;;5.40;1.90;;;;;;;;;;5032297;28;20057;-64
2022/08/29 02:00:04;;;;;;;5.65;1.45;;;;;;;;;;4984421;28;20061;-64
2022/08/29 02:02:34;;;;;;;3.90;1.73;;;;;;;;;;5015931;28;20080;-64
2022/08/29 02:05:06;;;;;;;8.75;2.33;;;;;;;;;;5012618;28;20105;-64
2022/08/29 02:07:37;;;;;;;4.57;1.70;;;;;;;;;;5011937;28;20088;-63
2022/08/29 02:10:08;;;;;;;4.63;1.42;;;;;;;;;;5032110;28;20104;-64
2022/08/29 02:12:39;;;;;;;4.47;1.27;;;;;;;;;;5032226;28;20056;-64
2022/08/29 02:15:09;;;;;;;4.95;1.92;;;;;;;;;;5031935;28;20065;-64
2022/08/29 02:17:39;;;;;;;7.57;2.22;;;;;;;;;;5032062;28;20436;-65
2022/08/29 02:20:12;;;;;;;5.07;1.38;;;;;;;;;;5015754;28;20057;-64
2022/08/29 02:22:43;;;;;;;12.40;2.25;;;;;;;;;;5051591;28;20048;-64
2022/08/29 02:28:02;;;;;;;9.23;1.58;;;;;;;;;;5011766;28;20488;-65
2022/08/29 02:30:33;;;;;;;5.35;1.23;;;;;;;;;;4995503;28;20068;-64
2022/08/29 02:33:04;;;;;;;4.82;1.95;;;;;;;;;;4995758;28;20046;-64
2022/08/29 02:35:35;;;;;;;9.07;2.33;;;;;;;;;;4979411;28;20050;-64
2022/08/29 02:38:12;;;;;;;9.07;2.38;;;;;;;;;;5012071;28;20065;-65
2022/08/29 02:40:43;;;;;;;5.75;1.95;;;;;;;;;;5011828;28;20082;-64
2022/08/29 02:43:16;;;;;;;5.65;1.63;;;;;;;;;;5026338;28;20058;-64
2022/08/29 02:45:47;;;;;;;9.05;2.03;;;;;;;;;;5030834;28;20049;-64
2022/08/29 02:48:18;;;;;;;3.38;1.35;;;;;;;;;;5030831;28;20061;-64
2022/08/29 02:50:52;;;;;;;5.65;1.90;;;;;;;;;;5015145;28;20068;-64
2022/08/29 02:53:25;;;;;;;3.25;1.90;;;;;;;;;;4962546;28;20068;-64
2022/08/29 02:55:56;;;;;;;6.40;1.65;;;;;;;;;;4979032;28;20046;-64
2022/08/29 02:58:26;;;;;;;6.80;2.22;;;;;;;;;;5011330;28;20058;-64
2022/08/29 03:00:57;;;;;;;5.47;2.42;;;;;;;;;;4995233;28;20060;-64
2022/08/29 03:03:27;;;;;;;7.53;2.50;;;;;;;;;;5057664;28;20052;-64
2022/08/29 03:05:58;;;;;;;3.70;1.42;;;;;;;;;;5070863;28;20052;-64
2022/08/29 03:08:29;;;;;;;7.63;1.92;;;;;;;;;;5070462;28;20538;-64
2022/08/29 03:11:01;;;;;;;5.18;1.55;;;;;;;;;;5021336;28;20620;-64
2022/08/29 03:13:33;;;;;;;6.22;1.88;;;;;;;;;;5050816;28;20523;-64
2022/08/29 03:16:04;;;;;;;7.75;1.63;;;;;;;;;;5050848;28;20075;-64
2022/08/29 03:18:34;;;;;;;7.32;2.47;;;;;;;;;;5050558;28;20064;-64
2022/08/29 03:21:12;;;;;;;8.63;2.15;;;;;;;;;;5050760;28;20045;-65
2022/08/29 03:23:44;;;;;;;2.60;1.15;;;;;;;;;;5050608;28;20052;-64
2022/08/29 03:26:15;;;;;;;5.63;1.63;;;;;;;;;;5038122;28;20050;-64
2022/08/29 03:28:46;;;;;;;6.90;2.03;;;;;;;;;;5013839;28;20489;-64
2022/08/29 03:31:16;;;;;;;9.73;2.15;;;;;;;;;;5054437;28;20522;-65
2022/08/29 03:33:47;;;;;;;3.30;1.30;;;;;;;;;;5070369;28;20501;-64
2022/08/29 03:36:17;;;;;;;7.03;2.45;;;;;;;;;;5070287;28;20053;-64
2022/08/29 03:38:47;;;;;;;3.33;1.25;;;;;;;;;;5070325;28;20063;-65
2022/08/29 03:41:23;;;;;;;4.93;2.00;;;;;;;;;;5053914;28;20416;-65
2022/08/29 03:43:56;;;;;;;8.05;2.17;;;;;;;;;;5036811;28;20496;-65
2022/08/29 03:46:27;;;;;;;4.45;1.52;;;;;;;;;;5070257;28;20051;-64
2022/08/29 03:48:58;;;;;;;6.32;2.00;;;;;;;;;;5069955;28;20056;-65
2022/08/29 03:51:30;;;;;;;7.30;1.90;;;;;;;;;;5049640;28;20060;-65
2022/08/29 03:54:01;;;;;;;8.23;1.98;;;;;;;;;;5073578;28;20064;-64
2022/08/29 03:56:31;;;;;;;3.35;1.05;;;;;;;;;;5090332;28;20056;-64
2022/08/29 03:59:02;;;;;;;7.47;2.13;;;;;;;;;;5040284;28;20122;-64
2022/08/29 04:01:32;;;;;;;9.68;2.30;;;;;;;;;;5073763;28;20507;-65
2022/08/29 04:04:04;;;;;;;5.68;1.70;;;;;;;;;;5090316;28;20423;-64
2022/08/29 04:06:34;;;;;;;9.25;2.22;;;;;;;;;;5052848;28;20119;-65
2022/08/29 04:09:04;;;;;;;4.80;1.75;;;;;;;;;;5036324;28;20052;-64
2022/08/29 04:11:35;;;;;;;7.25;2.60;;;;;;;;;;5036535;28;20045;-64
2022/08/29 04:14:06;;;;;;;6.78;1.38;;;;;;;;;;5069680;28;20396;-64
2022/08/29 04:16:37;;;;;;;5.40;1.48;;;;;;;;;;5069813;28;20055;-64
2022/08/29 04:19:08;;;;;;;4.95;1.40;;;;;;;;;;5035977;28;20071;-64
2022/08/29 04:21:38;;;;;;;3.83;1.33;;;;;;;;;;5053505;28;20175;-64
2022/08/29 04:24:09;;;;;;;3.67;1.63;;;;;;;;;;5069657;28;20068;-64
2022/08/29 04:26:39;;;;;;;8.55;2.45;;;;;;;;;;5069865;28;20040;-64
2022/08/29 04:29:12;;;;;;;10.02;2.85;;;;;;;;;;5069639;28;20037;-64
2022/08/29 04:31:43;;;;;;;3.95;1.58;;;;;;;;;;5069776;28;20623;-64
2022/08/29 04:34:13;;;;;;;2.70;1.15;;;;;;;;;;5069711;28;20440;-65
2022/08/29 04:36:46;;;;;;;9.10;2.60;;;;;;;;;;5049287;28;20386;-64
2022/08/29 04:39:16;;;;;;;2.80;1.02;;;;;;;;;;5049429;28;20057;-64
2022/08/29 04:41:47;;;;;;;4.88;1.90;;;;;;;;;;5033526;28;20060;-64
2022/08/29 04:44:17;;;;;;;4.13;1.55;;;;;;;;;;5039423;28;20080;-64
2022/08/29 04:46:47;;;;;;;6.88;1.83;;;;;;;;;;5049493;28;20068;-63
2022/08/29 04:49:20;;;;;;;4.03;1.45;;;;;;;;;;4999748;28;20052;-64
2022/08/29 04:51:52;;;;;;;4.57;0.93;;;;;;;;;;5049525;28;20092;-64
2022/08/29 04:54:23;;;;;;;3.22;0.75;;;;;;;;;;5000013;28;20076;-65
2022/08/29 04:56:53;;;;;;;4.85;1.83;;;;;;;;;;5049397;28;20064;-64
2022/08/29 04:59:25;;;;;;;4.50;1.45;;;;;;;;;;5049079;28;20072;-64
2022/08/29 05:01:56;;;;;;;1.88;0.82;;;;;;;;;;5049396;28;20057;-64
2022/08/29 05:04:28;;;;;;;5.60;2.05;;;;;;;;;;5049385;28;20057;-64
2022/08/29 05:06:58;;;;;;;8.23;2.10;;;;;;;;;;4990132;28;20054;-64
2022/08/29 05:09:29;;;;;;;7.70;2.15;;;;;;;;;;4962198;28;20510;-65
2022/08/29 05:11:59;;;;;;;6.18;1.48;;;;;;;;;;4978097;28;20439;-64
2022/08/29 05:14:36;;;;;;;4.10;1.48;;;;;;;;;;4982349;28;20054;-65
2022/08/29 05:17:06;;;;;;;6.07;2.15;;;;;;;;;;4974392;28;20062;-64
2022/08/29 05:19:37;;;;;;;4.75;1.30;;;;;;;;;;4974136;28;20063;-64
2022/08/29 05:22:15;;;;;;;4.40;2.10;;;;;;;;;;4974403;28;20066;-64
2022/08/29 05:24:47;;;;;;;8.43;2.10;;;;;;;;;;4958061;28;20055;-65
2022/08/29 05:27:21;;;;;;;4.90;2.15;;;;;;;;;;4958318;28;20061;-64
2022/08/29 05:29:52;;;;;;;4.40;1.83;;;;;;;;;;4974053;28;20065;-64
2022/08/29 05:32:23;;;;;;;6.75;1.48;;;;;;;;;;4974240;28;20058;-64
2022/08/29 05:34:54;;;;;;;6.75;0.98;;;;;;;;;;4974004;28;20450;-64
2022/08/29 05:37:25;;;;;;;8.95;2.42;;;;;;;;;;4997350;28;20136;-64
2022/08/29 05:39:55;;;;;;;5.30;1.48;;;;;;;;;;5032630;28;20050;-64
2022/08/29 05:42:26;;;;;;;2.80;0.88;;;;;;;;;;5016093;28;20057;-64
2022/08/29 05:44:57;;;;;;;5.47;1.70;;;;;;;;;;5060334;28;20734;-64
2022/08/29 05:47:27;;;;;;;4.40;1.27;;;;;;;;;;5072870;28;20400;-64
2022/08/29 05:49:59;;;;;;;4.40;1.50;;;;;;;;;;5073657;28;20040;-64
2022/08/29 05:52:29;;;;;;;6.95;1.52;;;;;;;;;;5075153;28;20052;-64
2022/08/29 05:55:01;;;;;;;6.18;1.83;;;;;;;;;;5074746;28;20052;-64
2022/08/29 05:57:31;;;;;;;2.33;0.90;;;;;;;;;;5074677;28;20040;-64
2022/08/29 06:00:01;;;;;;;5.07;1.42;;;;;;;;;;5072141;28;20061;-64
2022/08/29 06:02:39;;;;;;;2.63;1.05;;;;;;;;;;5057316;28;20606;-64
2022/08/29 06:05:10;;;;;;;5.47;1.75;;;;;;;;;;5072083;28;20079;-64
2022/08/29 06:07:40;;;;;;;7.88;1.92;;;;;;;;;;5068177;28;20444;-64
2022/08/29 06:10:10;;;;;;;4.28;1.67;;;;;;;;;;5052071;28;20061;-64
2022/08/29 06:12:40;;;;;;;4.82;1.50;;;;;;;;;;5018937;28;20061;-64
2022/08/29 06:15:11;;;;;;;2.92;1.02;;;;;;;;;;5018564;28;20501;-64
2022/08/29 06:17:42;;;;;;;3.88;1.63;;;;;;;;;;5051797;28;20394;-64
2022/08/29 06:20:13;;;;;;;3.45;1.33;;;;;;;;;;5001947;28;20115;-65
2022/08/29 06:22:43;;;;;;;3.85;1.63;;;;;;;;;;5051998;28;20061;-64
2022/08/29 06:25:14;;;;;;;4.53;1.88;;;;;;;;;;5031615;28;20057;-64
2022/08/29 06:28:05;;;;;;;4.18;1.50;;;;;;;;;;5031892;28;20054;-63
2022/08/29 06:30:35;;;;;;;5.57;1.63;;;;;;;;;;5031289;28;20057;-64
2022/08/29 06:33:05;;;;;;;5.80;2.25;;;;;;;;;;5031779;28;20057;-64
2022/08/29 06:35:36;;;;;;;4.93;1.15;;;;;;;;;;5031386;28;20046;-63
2022/08/29 06:38:07;;;;;;;6.55;2.55;;;;;;;;;;5029474;28;20572;-64
2022/08/29 06:40:41;;;;;;;4.25;1.48;;;;;;;;;;5002029;28;20057;-64
2022/08/29 06:43:12;;;;;;;5.65;1.50;;;;;;;;;;5051512;28;20049;-63
2022/08/29 06:45:43;;;;;;;5.07;1.30;;;;;;;;;;5021862;28;20064;-63
2022/08/29 06:48:14;;;;;;;8.02;1.70;;;;;;;;;;5015165;28;20405;-64
2022/08/29 06:50:44;;;;;;;4.50;1.70;;;;;;;;;;5031485;28;20054;-64
2022/08/29 06:53:14;;;;;;;5.43;1.73;;;;;;;;;;4998527;28;20061;-64
2022/08/29 06:56:07;;;;;;;6.10;1.73;;;;;;;;;;5046676;28;20529;-64
2022/08/29 06:58:40;;;;;;;4.28;1.73;;;;;;;;;;5051276;28;20156;-64
2022/08/29 07:01:13;;;;;;;2.03;1.02;;;;;;;;;;5051306;28;20053;-63
2022/08/29 07:03:45;;;;;;;4.50;1.70;;;;;;;;;;5066613;28;20048;-63
2022/08/29 07:06:17;;;;;;;5.47;1.83;;;;;;;;;;5087761;28;20535;-63
2022/08/29 07:08:48;;;;;;;3.15;1.17;;;;;;;;;;5073267;28;20040;-65
2022/08/29 07:11:26;;;;;;;6.20;1.92;;;;;;;;;;5073060;28;20041;-64
2022/08/29 07:13:59;;;;;;;6.50;1.95;;;;;;;;;;5073196;28;20032;-63
2022/08/29 07:16:30;;;;;;;6.25;1.80;;;;;;;;;;5073025;28;20040;-64
2022/08/29 07:19:06;;;;;;;3.38;1.52;;;;;;;;;;5073108;28;20040;-64
2022/08/29 07:21:38;;;;;;;5.45;2.60;;;;;;;;;;5072998;28;20045;-64
2022/08/29 07:24:08;;;;;;;5.97;1.92;;;;;;;;;;5072081;28;20477;-64
2022/08/29 07:26:42;;;;;;;6.22;1.58;;;;;;;;;;5037782;28;20519;-64
2022/08/29 07:29:18;;;;;;;6.38;2.15;;;;;;;;;;5072978;28;20060;-64
2022/08/29 07:31:49;;;;;;;6.13;2.05;;;;;;;;;;5072548;28;20036;-64
2022/08/29 07:34:19;;;;;;;4.05;1.55;;;;;;;;;;5087344;28;20064;-64
2022/08/29 07:36:49;;;;;;;5.80;1.60;;;;;;;;;;5104701;28;20524;-63
2022/08/29 07:39:21;;;;;;;8.35;1.70;;;;;;;;;;5072439;28;20041;-64
2022/08/29 07:41:52;;;;;;;6.13;1.92;;;;;;;;;;5037516;28;20382;-64
2022/08/29 07:44:23;;;;;;;6.55;3.10;;;;;;;;;;5104246;28;20036;-63
2022/08/29 07:46:59;;;;;;;3.83;1.80;;;;;;;;;;5073346;28;20052;-63
2022/08/29 07:49:31;;;;;;;5.65;1.88;;;;;;;;;;5056798;28;20055;-64
2022/08/29 07:52:10;;;;;;;5.72;1.75;;;;;;;;;;5090260;28;20071;-64
2022/08/29 07:54:40;;;;;;;3.47;1.40;;;;;;;;;;5090141;28;20067;-63
2022/08/29 07:57:10;;;;;;;6.30;1.60;;;;;;;;;;5090151;28;20084;-63
2022/08/29 07:59:41;;;;;;;6.07;1.60;;;;;;;;;;5090329;28;20063;-63
2022/08/29 08:02:11;;;;;;;3.95;1.75;;;;;;;;;;5090359;28;20064;-63
2022/08/29 08:04:42;;;;;;;6.65;1.85;;;;;;;;;;5065977;28;20057;-63
2022/08/29 08:07:13;;;;;;;6.55;2.53;;;;;;;;;;5049980;28;20614;-63
2022/08/29 08:09:44;;;;;;;5.15;2.13;;;;;;;;;;5049872;28;20483;-63
2022/08/29 08:12:15;;;;;;;6.05;1.83;;;;;;;;;;5049877;28;20441;-63
2022/08/29 08:14:46;;;;;;;6.68;1.98;;;;;;;;;;5049791;28;20061;-63
2022/08/29 08:17:16;;;;;;;6.43;1.90;;;;;;;;;;5049898;28;20061;-63
2022/08/29 08:19:46;;;;;;;5.60;2.15;;;;;;;;;;5049837;28;20053;-64
2022/08/29 08:22:16;;;;;;;5.10;2.67;;;;;;;;;;5049823;28;20061;-63
2022/08/29 08:24:47;;;;;;;5.00;1.90;;;;;;;;;;4993472;28;20096;-64
2022/08/29 08:27:17;;;;;;;4.30;2.22;;;;;;;;;;5009998;28;20529;-63
2022/08/29 08:29:47;;;;;;;9.82;2.30;;;;;;;;;;4993454;28;20513;-64
2022/08/29 08:32:19;;;;;;;8.30;1.98;;;;;;;;;;5009966;28;20191;-63
2022/08/29 08:34:49;;;;;;;5.45;1.73;;;;;;;;;;5049548;28;20053;-63
2022/08/29 08:37:22;;;;;;;5.65;1.65;;;;;;;;;;5049535;28;20056;-64
2022/08/29 08:39:56;;;;;;;6.35;2.15;;;;;;;;;;5017226;28;20068;-64
2022/08/29 08:42:42;;;;;;;6.68;1.73;;;;;;;;;;5045415;28;20056;-63
2022/08/29 08:45:21;;;;;;;4.88;2.08;;;;;;;;;;5057297;28;20068;-63
2022/08/29 08:48:02;;;;;;;8.70;2.03;;;;;;;;;;5040334;28;20538;-63
2022/08/29 08:50:52;;;;;;;6.55;1.83;;;;;;;;;;5036797;28;20068;-63
2022/08/29 08:53:44;;;;;;;4.72;1.80;;;;;;;;;;5053364;28;20555;-64
2022/08/29 08:56:40;;;;;;;4.88;1.98;;;;;;;;;;5073436;28;20053;-64
2022/08/29 08:59:41;;;;;;;8.77;2.78;;;;;;;;;;5053435;28;20057;-64
2022/08/29 09:02:35;;;;;;;4.38;1.45;;;;;;;;;;5053218;28;20057;-63
2022/08/29 09:05:18;;;;;;;6.68;2.17;;;;;;;;;;5013852;28;20062;-63
2022/08/29 09:08:03;;;;;;;7.40;1.95;;;;;;;;;;5013641;28;20069;-63
2022/08/29 09:10:43;;;;;;;7.15;2.45;;;;;;;;;;4997443;28;20101;-63
2022/08/29 09:13:45;;;;;;;13.65;3.58;;;;;;;;;;5013521;28;20156;-63
2022/08/29 09:16:33;;;;;;;7.00;2.70;;;;;;;;;;4974029;28;20057;-64
2022/08/29 09:19:08;;;;;;;4.35;1.90;;;;;;;;;;4974133;28;20058;-64
2022/08/29 09:21:50;;;;;;;4.88;2.03;;;;;;;;;;4974152;28;20462;-64
2022/08/29 09:24:43;;;;;;;5.07;1.88;;;;;;;;;;4974117;28;20054;-64
2022/08/29 09:27:19;;;;;;;5.57;2.30;;;;;;;;;;4973839;28;20222;-64
2022/08/29 09:30:26;;;;;;;9.10;2.35;;;;;;;;;;4973826;28;20051;-64
2022/08/29 09:33:07;;;;;;;6.13;2.42;;;;;;;;;;4916430;29;20078;-63
2022/08/29 09:35:52;;;;;;;4.90;1.85;;;;;;;;;;4884969;29;20060;-63
2022/08/29 09:38:26;;;;;;;4.90;2.13;;;;;;;;;;4916456;29;20067;-63
2022/08/29 09:41:06;;;;;;;6.38;2.38;;;;;;;;;;4916350;29;20051;-63
2022/08/29 09:43:39;;;;;;;8.32;3.40;;;;;;;;;;4916607;29;20056;-63
2022/08/29 09:46:10;;;;;;;6.95;2.28;;;;;;;;;;4916163;29;20056;-63
2022/08/29 09:48:50;;;;;;;8.13;2.45;;;;;;;;;;4916371;29;20056;-64
2022/08/29 09:51:24;;;;;;;6.35;2.28;;;;;;;;;;4916289;29;20055;-64
2022/08/29 09:54:27;;;;;;;6.75;2.95;;;;;;;;;;4919956;29;20055;-64
2022/08/29 09:57:18;;;;;;;6.90;2.60;;;;;;;;;;4935109;29;20060;-64
2022/08/29 10:00:10;;;;;;;8.45;2.50;;;;;;;;;;4949389;29;20055;-63
2022/08/29 10:02:53;;;;;;;7.22;2.70;;;;;;;;;;4953610;29;20043;-64
2022/08/29 10:05:43;;;;;;;6.10;3.28;;;;;;;;;;4934876;29;20424;-63
2022/08/29 10:08:30;;;;;;;6.45;3.60;;;;;;;;;;4965764;28;20066;-64
2022/08/29 10:11:03;;;;;;;9.05;3.58;;;;;;;;;;4992484;28;20155;-63
2022/08/29 10:14:16;;;;;;;8.45;3.97;;;;;;;;;;4973144;28;20392;-63
2022/08/29 10:20:09;;;;;;;15.23;3.28;;;;;;;;;;4915777;29;20048;-63
2022/08/29 10:22:58;;;;;;;7.95;3.58;;;;;;;;;;4915571;29;20075;-64
2022/08/29 10:25:36;;;;;;;10.25;4.13;;;;;;;;;;4884091;29;20071;-64
2022/08/29 10:28:23;;;;;;;8.55;4.00;;;;;;;;;;4915739;29;20060;-64
2022/08/29 10:31:07;;;;;;;7.95;3.85;;;;;;;;;;4915547;29;20063;-64
2022/08/29 10:34:18;;;;;;;7.47;3.85;;;;;;;;;;4915569;29;20056;-64
2022/08/29 10:37:01;;;;;;;5.95;2.58;;;;;;;;;;4877879;29;20060;-64
2022/08/29 10:39:49;;;;;;;7.65;3.72;;;;;;;;;;4877527;29;20064;-64
2022/08/29 10:42:25;;;;;;;3.92;1.70;;;;;;;;;;4885776;29;20064;-64
2022/08/29 10:45:13;;;;;;;6.80;2.92;;;;;;;;;;4915299;29;20060;-64
2022/08/29 10:48:02;;;;;;;6.35;2.88;;;;;;;;;;4919827;29;20103;-65
2022/08/29 10:51:02;;;;;;;6.45;2.28;;;;;;;;;;4933798;29;20059;-64
2022/08/29 10:53:43;;;;;;;3.15;1.52;;;;;;;;;;4972066;28;20066;-64
2022/08/29 10:56:23;;;;;;;6.97;3.13;;;;;;;;;;4972700;28;20098;-65
2022/08/29 10:59:10;;;;;;;7.15;2.90;;;;;;;;;;4941455;28;20127;-64
2022/08/29 11:02:24;;;;;;;16.95;5.40;;;;;;;;;;4957176;28;20055;-64
2022/08/29 11:04:59;;;;;;;36.08;12.73;;;;;;;;;;4933165;29;20420;-64
2022/08/29 11:07:42;;;;;;;22.17;8.13;;;;;;;;;;4933932;29;20052;-64
2022/08/29 11:10:17;;;;;;;5.38;1.75;;;;;;;;;;4933728;29;20060;-64
2022/08/29 11:12:51;;;;;;;23.33;9.13;;;;;;;;;;4916100;28;20048;-64
2022/08/29 11:15:33;;;;;;;14.13;5.95;;;;;;;;;;4972068;28;20062;-63
2022/08/29 11:18:30;;;;;;;13.52;3.97;;;;;;;;;;4940060;28;20051;-64
2022/08/29 11:21:43;;;;;;;6.15;2.83;;;;;;;;;;4956165;28;20063;-63
2022/08/29 11:24:16;;;;;;;4.25;1.67;;;;;;;;;;4899327;29;20059;-64
2022/08/29 11:26:58;;;;;;;7.80;2.92;;;;;;;;;;4883192;29;20401;-64
2022/08/29 11:29:51;;;;;;;6.80;2.38;;;;;;;;;;4883809;29;20056;-64
2022/08/29 11:33:05;;;;;;;2.60;1.15;;;;;;;;;;4914365;29;20079;-63
2022/08/29 11:36:05;;;;;;;7.03;1.60;;;;;;;;;;4933192;29;20054;-64
2022/08/29 11:38:51;;;;;;;5.70;1.92;;;;;;;;;;4933311;29;20063;-64
2022/08/29 11:41:47;;;;;;;9.10;2.83;;;;;;;;;;4946911;28;20128;-64
2022/08/29 11:44:44;;;;;;;7.82;3.15;;;;;;;;;;4971904;28;20051;-63
2022/08/29 11:47:38;;;;;;;6.15;2.40;;;;;;;;;;4971487;28;20058;-64
2022/08/29 11:50:34;;;;;;;4.05;1.75;;;;;;;;;;4939520;28;20078;-64
2022/08/29 11:53:33;;;;;;;7.15;2.33;;;;;;;;;;4971360;28;20062;-65
2022/08/29 11:56:12;;;;;;;2.85;1.20;;;;;;;;;;4971526;28;20062;-65
2022/08/29 11:58:50;;;;;;;2.70;1.40;;;;;;;;;;4971055;28;20058;-64
2022/08/29 12:01:24;;;;;;;3.20;1.42;;;;;;;;;;4966728;28;20108;-64
2022/08/29 12:03:57;;;;;;;4.75;1.73;;;;;;;;;;5029822;28;20068;-65
2022/08/29 12:06:50;;;;;;;7.97;2.13;;;;;;;;;;4990439;28;20065;-65
2022/08/29 12:09:44;;;;;;;4.38;1.85;;;;;;;;;;5009787;28;20054;-65
2022/08/29 12:12:35;;;;;;;5.25;2.38;;;;;;;;;;5010075;28;20070;-65
2022/08/29 12:15:29;;;;;;;8.20;3.13;;;;;;;;;;4978256;28;20058;-65
2022/08/29 12:18:22;;;;;;;4.28;2.28;;;;;;;;;;5011995;28;20057;-65
2022/08/29 12:20:54;;;;;;;3.40;1.58;;;;;;;;;;4932299;29;20066;-65
2022/08/29 12:23:32;;;;;;;6.07;1.50;;;;;;;;;;4897626;29;20080;-65
2022/08/29 12:26:24;;;;;;;6.00;1.60;;;;;;;;;;4913557;29;20385;-65
2022/08/29 12:28:59;;;;;;;2.83;1.25;;;;;;;;;;4897535;29;20056;-65
2022/08/29 12:31:50;;;;;;;5.03;1.00;;;;;;;;;;4913531;29;20060;-65
2022/08/29 12:34:56;;;;;;;3.13;1.15;;;;;;;;;;4913544;29;20060;-65
2022/08/29 12:37:52;;;;;;;4.38;1.13;;;;;;;;;;4895773;29;20056;-65
2022/08/29 12:40:23;;;;;;;5.32;1.02;;;;;;;;;;4895231;29;20060;-64
2022/08/29 12:43:17;;;;;;;6.57;1.80;;;;;;;;;;4913440;29;20453;-65
2022/08/29 12:45:50;;;;;;;3.30;1.17;;;;;;;;;;4913743;29;20064;-65
2022/08/29 12:48:30;;;;;;;3.83;1.08;;;;;;;;;;4951811;29;20423;-65
2022/08/29 12:51:03;;;;;;;5.82;1.83;;;;;;;;;;4874185;29;20071;-65
2022/08/29 12:53:35;;;;;;;3.45;1.50;;;;;;;;;;4905936;29;20543;-65
2022/08/29 12:56:19;;;;;;;12.02;4.10;;;;;;;;;;4919786;29;20515;-65
2022/08/29 12:58:51;;;;;;;4.00;1.38;;;;;;;;;;5016044;28;20060;-65
2022/08/29 13:01:29;;;;;;;2.97;1.00;;;;;;;;;;5055681;28;20052;-65
2022/08/29 13:04:16;;;;;;;1.85;0.90;;;;;;;;;;5071800;28;20052;-65
2022/08/29 13:07:06;;;;;;;1.63;0.70;;;;;;;;;;5071783;28;20037;-65
2022/08/29 13:09:41;;;;;;;2.13;0.82;;;;;;;;;;5071527;28;20051;-65
2022/08/29 13:12:25;;;;;;;1.90;0.80;;;;;;;;;;5071411;28;20044;-65
2022/08/29 13:15:06;;;;;;;2.33;0.63;;;;;;;;;;5071464;28;20032;-65
2022/08/29 13:17:39;;;;;;;4.18;0.80;;;;;;;;;;5069295;28;20053;-65
2022/08/29 13:20:48;;;;;;;5.82;1.83;;;;;;;;;;5069150;28;20053;-65
2022/08/29 13:23:23;;;;;;;2.65;0.90;;;;;;;;;;5069169;28;20060;-65
2022/08/29 13:26:03;;;;;;;5.65;1.58;;;;;;;;;;5052688;28;20053;-65
2022/08/29 13:29:14;;;;;;;10.57;1.50;;;;;;;;;;5070275;28;20106;-65
2022/08/29 13:32:31;;;;;;;4.05;1.33;;;;;;;;;;5013114;28;20046;-65
2022/08/29 13:35:07;;;;;;;2.85;1.27;;;;;;;;;;4954089;29;20166;-65
2022/08/29 13:37:40;;;;;;;2.75;1.13;;;;;;;;;;4954729;29;20055;-65
2022/08/29 13:40:32;;;;;;;2.60;1.10;;;;;;;;;;4935080;29;20074;-64
2022/08/29 13:43:03;;;;;;;3.75;0.93;;;;;;;;;;4935242;29;20063;-65
2022/08/29 13:45:35;;;;;;;2.72;0.80;;;;;;;;;;4919695;29;20052;-65
2022/08/29 13:48:18;;;;;;;2.33;0.70;;;;;;;;;;4919455;29;20063;-65
2022/08/29 13:50:49;;;;;;;3.05;1.15;;;;;;;;;;4954196;28;20055;-65
2022/08/29 13:53:19;;;;;;;3.80;1.00;;;;;;;;;;4953881;28;20058;-65
2022/08/29 13:55:50;;;;;;;2.00;0.82;;;;;;;;;;4953928;28;20070;-65
2022/08/29 13:58:21;;;;;;;7.63;1.60;;;;;;;;;;4954167;28;20055;-65
2022/08/29 14:00:53;;;;;;;4.13;0.80;;;;;;;;;;4922032;28;20633;-65
2022/08/29 14:03:24;;;;;;;4.28;1.63;;;;;;;;;;4954063;28;20070;-65
2022/08/29 14:05:57;;;;;;;3.97;1.77;;;;;;;;;;4954065;28;20403;-65
2022/08/29 14:08:29;;;;;;;7.45;2.50;;;;;;;;;;4953949;28;20062;-64
2022/08/29 14:10:59;;;;;;;3.17;0.85;;;;;;;;;;4966308;28;20067;-65
2022/08/29 14:13:29;;;;;;;3.35;0.98;;;;;;;;;;5032153;28;20100;-65
2022/08/29 14:16:00;;;;;;;5.95;1.75;;;;;;;;;;4992516;28;20050;-65
2022/08/29 14:18:32;;;;;;;8.98;3.65;;;;;;;;;;4995483;28;20046;-65
2022/08/29 14:21:02;;;;;;;13.75;5.38;;;;;;;;;;5012077;28;20061;-65
2022/08/29 14:23:34;;;;;;;13.90;7.03;;;;;;;;;;4995990;28;20061;-65
2022/08/29 14:26:05;;;;;;;6.65;2.00;;;;;;;;;;4995614;28;20493;-65
2022/08/29 14:28:35;;;;;;;6.28;2.22;;;;;;;;;;5033649;28;20052;-65
2022/08/29 14:31:09;;;;;;;8.07;1.27;;;;;;;;;;5019297;28;20056;-65
2022/08/29 14:33:40;;;;;;;4.20;2.33;;;;;;;;;;5051241;28;20092;-65
2022/08/29 14:36:13;;;;;;;5.15;1.40;;;;;;;;;;5035044;28;20049;-66
2022/08/29 14:38:44;;;;;;;4.50;1.60;;;;;;;;;;5063967;28;20177;-65
2022/08/29 14:41:15;;;;;;;3.88;1.63;;;;;;;;;;5021429;28;20052;-65
2022/08/29 14:43:45;;;;;;;3.22;0.98;;;;;;;;;;5071326;28;20056;-66
2022/08/29 14:46:16;;;;;;;5.40;1.42;;;;;;;;;;5071299;28;20512;-66
2022/08/29 14:48:46;;;;;;;3.72;1.60;;;;;;;;;;5071254;28;20056;-66
2022/08/29 14:51:17;;;;;;;2.08;0.85;;;;;;;;;;4998664;28;20405;-66
2022/08/29 14:53:47;;;;;;;4.75;1.25;;;;;;;;;;4993946;28;20523;-66
2022/08/29 14:56:28;;;;;;;3.97;1.55;;;;;;;;;;5039152;28;20056;-65
2022/08/29 14:59:19;;;;;;;4.88;0.77;;;;;;;;;;5031383;28;20060;-66
2022/08/29 15:01:50;;;;;;;2.13;1.00;;;;;;;;;;5031259;28;20063;-65
2022/08/29 15:04:24;;;;;;;6.03;1.95;;;;;;;;;;5031340;28;20068;-65
2022/08/29 15:07:12;;;;;;;6.63;1.77;;;;;;;;;;5010744;28;20104;-66
2022/08/29 15:09:42;;;;;;;10.68;3.03;;;;;;;;;;4995168;28;20049;-66
2022/08/29 15:12:16;;;;;;;6.97;2.72;;;;;;;;;;4956195;28;20062;-66
2022/08/29 15:14:46;;;;;;;;;;;;;;;;;;4972486;28;20062;-66
2022/08/29 15:17:17;;;;;;;9.93;2.63;;;;;;;;;;4932912;29;19930;-66
2022/08/29 15:19:47;;;;;;;6.32;1.58;;;;;;;;;;4933613;29;20059;-66
2022/08/29 15:22:38;;;;;;;8.65;2.92;;;;;;;;;;4933258;29;20081;-65
2022/08/29 15:25:08;;;;;;;4.03;1.27;;;;;;;;;;4933319;29;20067;-66
2022/08/29 15:27:39;;;;;;;9.32;2.47;;;;;;;;;;4933093;29;20062;-65
2022/08/29 15:30:10;;;;;;;4.68;1.85;;;;;;;;;;4952306;29;20206;-66
2022/08/29 15:32:40;;;;;;;2.25;0.90;;;;;;;;;;4952312;29;20063;-65
2022/08/29 15:35:16;;;;;;;6.65;2.30;;;;;;;;;;4956432;28;20102;-66
2022/08/29 15:37:47;;;;;;;2.35;0.75;;;;;;;;;;4955304;28;20046;-66
2022/08/29 15:40:18;;;;;;;1.83;0.80;;;;;;;;;;4971669;28;20062;-65
2022/08/29 15:42:48;;;;;;;2.08;0.65;;;;;;;;;;4971374;28;20058;-66
2022/08/29 15:45:19;;;;;;;2.72;1.00;;;;;;;;;;4991270;28;20061;-67
2022/08/29 15:47:51;;;;;;;3.88;1.77;;;;;;;;;;5010263;28;20395;-65